sensor_id;sensor_type;location;lat;lon;timestamp;P1;durP1;ratioP1;P2;durP2;ratioP2
12892;SDS011;6514;48.606;9.222;2023-04-25T00:00:25;3.43;;;3.13;;
12892;SDS011;6514;48.606;9.222;2023-04-25T00:02:52;5.17;;;3.47;;
12892;SDS011;6514;48.606;9.222;2023-04-25T00:05:20;4.27;;;3.43;;
12892;SDS011;6514;48.606;9.222;2023-04-25T00:07:49;3.83;;;3.37;;
12892;SDS011;6514;48.606;9.222;2023-04-25T00:10:16;3.50;;;3.17;;
12892;SDS011;6514;48.606;9.222;2023-04-25T00:12:43;3.60;;;3.30;;
12892;SDS011;6514;48.606;9.222;2023-04-25T00:15:10;3.53;;;2.83;;
12892;SDS011;6514;48.606;9.222;2023-04-25T00:17:37;3.60;;;3.30;;
12892;SDS011;6514;48.606;9.222;2023-04-25T00:20:05;4.27;;;3.57;;
12892;SDS011;6514;48.606;9.222;2023-04-25T00:22:34;3.67;;;3.37;;
12892;SDS011;6514;48.606;9.222;2023-04-25T00:25:04;5.57;;;3.37;;
12892;SDS011;6514;48.606;9.222;2023-04-25T00:27:31;4.97;;;3.83;;
12892;SDS011;6514;48.606;9.222;2023-04-25T00:29:58;4.53;;;4.00;;
12892;SDS011;6514;48.606;9.222;2023-04-25T00:32:25;4.23;;;3.87;;
12892;SDS011;6514;48.606;9.222;2023-04-25T00:34:52;4.17;;;3.80;;
12892;SDS011;6514;48.606;9.222;2023-04-25T00:37:20;4.10;;;3.70;;
12892;SDS011;6514;48.606;9.222;2023-04-25T00:39:47;4.87;;;4.00;;
12892;SDS011;6514;48.606;9.222;2023-04-25T00:42:15;4.03;;;3.60;;
12892;SDS011;6514;48.606;9.222;2023-04-25T00:44:42;5.83;;;3.50;;
12892;SDS011;6514;48.606;9.222;2023-04-25T00:47:11;5.30;;;3.80;;
12892;SDS011;6514;48.606;9.222;2023-04-25T00:49:37;4.20;;;3.80;;
12892;SDS011;6514;48.606;9.222;2023-04-25T00:52:04;5.27;;;3.77;;
12892;SDS011;6514;48.606;9.222;2023-04-25T00:54:32;4.80;;;3.73;;
12892;SDS011;6514;48.606;9.222;2023-04-25T00:56:59;4.90;;;3.90;;
12892;SDS011;6514;48.606;9.222;2023-04-25T00:59:28;4.37;;;3.97;;
12892;SDS011;6514;48.606;9.222;2023-04-25T01:01:55;4.10;;;3.70;;
12892;SDS011;6514;48.606;9.222;2023-04-25T01:04:22;4.00;;;3.60;;
12892;SDS011;6514;48.606;9.222;2023-04-25T01:06:49;4.73;;;3.00;;
12892;SDS011;6514;48.606;9.222;2023-04-25T01:09:17;6.00;;;3.57;;
12892;SDS011;6514;48.606;9.222;2023-04-25T01:11:44;4.27;;;3.30;;
12892;SDS011;6514;48.606;9.222;2023-04-25T01:14:11;4.80;;;3.43;;
12892;SDS011;6514;48.606;9.222;2023-04-25T01:16:39;3.67;;;3.37;;
12892;SDS011;6514;48.606;9.222;2023-04-25T01:19:08;4.30;;;2.90;;
12892;SDS011;6514;48.606;9.222;2023-04-25T01:21:38;5.10;;;3.37;;
12892;SDS011;6514;48.606;9.222;2023-04-25T01:24:05;4.33;;;3.30;;
12892;SDS011;6514;48.606;9.222;2023-04-25T01:26:33;5.40;;;3.30;;
12892;SDS011;6514;48.606;9.222;2023-04-25T01:29:00;3.57;;;3.27;;
12892;SDS011;6514;48.606;9.222;2023-04-25T01:31:28;4.40;;;3.17;;
12892;SDS011;6514;48.606;9.222;2023-04-25T01:33:55;4.23;;;3.83;;
12892;SDS011;6514;48.606;9.222;2023-04-25T01:36:22;3.93;;;3.10;;
12892;SDS011;6514;48.606;9.222;2023-04-25T01:38:50;3.70;;;3.30;;
12892;SDS011;6514;48.606;9.222;2023-04-25T01:41:17;4.33;;;3.20;;
12892;SDS011;6514;48.606;9.222;2023-04-25T01:43:44;4.27;;;3.37;;
12892;SDS011;6514;48.606;9.222;2023-04-25T01:46:12;4.50;;;3.60;;
12892;SDS011;6514;48.606;9.222;2023-04-25T01:48:38;4.70;;;3.00;;
12892;SDS011;6514;48.606;9.222;2023-04-25T01:51:05;5.97;;;3.20;;
12892;SDS011;6514;48.606;9.222;2023-04-25T01:53:32;3.97;;;3.17;;
12892;SDS011;6514;48.606;9.222;2023-04-25T01:56:01;3.53;;;2.97;;
12892;SDS011;6514;48.606;9.222;2023-04-25T01:58:28;3.63;;;3.30;;
12892;SDS011;6514;48.606;9.222;2023-04-25T02:00:55;3.53;;;3.23;;
12892;SDS011;6514;48.606;9.222;2023-04-25T02:03:22;4.37;;;2.70;;
12892;SDS011;6514;48.606;9.222;2023-04-25T02:05:49;3.03;;;2.70;;
12892;SDS011;6514;48.606;9.222;2023-04-25T02:08:16;4.10;;;3.03;;
12892;SDS011;6514;48.606;9.222;2023-04-25T02:10:43;4.50;;;3.43;;
12892;SDS011;6514;48.606;9.222;2023-04-25T02:13:11;4.37;;;3.20;;
12892;SDS011;6514;48.606;9.222;2023-04-25T02:15:38;3.57;;;3.17;;
12892;SDS011;6514;48.606;9.222;2023-04-25T02:18:06;4.77;;;3.50;;
12892;SDS011;6514;48.606;9.222;2023-04-25T02:20:33;5.33;;;3.10;;
12892;SDS011;6514;48.606;9.222;2023-04-25T02:22:59;3.87;;;3.07;;
12892;SDS011;6514;48.606;9.222;2023-04-25T02:25:26;4.70;;;3.10;;
12892;SDS011;6514;48.606;9.222;2023-04-25T02:27:53;3.57;;;3.27;;
12892;SDS011;6514;48.606;9.222;2023-04-25T02:30:21;5.30;;;3.23;;
12892;SDS011;6514;48.606;9.222;2023-04-25T02:32:48;4.20;;;3.10;;
12892;SDS011;6514;48.606;9.222;2023-04-25T02:35:15;4.67;;;3.10;;
12892;SDS011;6514;48.606;9.222;2023-04-25T02:37:42;2.80;;;2.60;;
12892;SDS011;6514;48.606;9.222;2023-04-25T02:40:09;5.80;;;3.10;;
12892;SDS011;6514;48.606;9.222;2023-04-25T02:42:36;3.57;;;2.83;;
12892;SDS011;6514;48.606;9.222;2023-04-25T02:45:04;5.27;;;3.07;;
12892;SDS011;6514;48.606;9.222;2023-04-25T02:47:32;3.90;;;3.17;;
12892;SDS011;6514;48.606;9.222;2023-04-25T02:49:59;4.90;;;3.10;;
12892;SDS011;6514;48.606;9.222;2023-04-25T02:52:26;4.13;;;2.97;;
12892;SDS011;6514;48.606;9.222;2023-04-25T02:54:53;3.30;;;3.00;;
12892;SDS011;6514;48.606;9.222;2023-04-25T02:57:20;3.77;;;3.30;;
12892;SDS011;6514;48.606;9.222;2023-04-25T02:59:46;3.60;;;3.07;;
12892;SDS011;6514;48.606;9.222;2023-04-25T03:02:13;3.40;;;3.10;;
12892;SDS011;6514;48.606;9.222;2023-04-25T03:04:42;6.17;;;3.30;;
12892;SDS011;6514;48.606;9.222;2023-04-25T03:07:09;4.30;;;3.30;;
12892;SDS011;6514;48.606;9.222;2023-04-25T03:09:36;4.87;;;3.40;;
12892;SDS011;6514;48.606;9.222;2023-04-25T03:12:03;7.83;;;3.70;;
12892;SDS011;6514;48.606;9.222;2023-04-25T03:14:30;5.03;;;3.83;;
12892;SDS011;6514;48.606;9.222;2023-04-25T03:16:57;4.40;;;3.60;;
12892;SDS011;6514;48.606;9.222;2023-04-25T03:19:24;5.07;;;3.43;;
12892;SDS011;6514;48.606;9.222;2023-04-25T03:21:52;5.47;;;3.87;;
12892;SDS011;6514;48.606;9.222;2023-04-25T03:24:19;4.43;;;3.60;;
12892;SDS011;6514;48.606;9.222;2023-04-25T03:26:46;4.30;;;3.63;;
12892;SDS011;6514;48.606;9.222;2023-04-25T03:29:13;5.13;;;3.83;;
12892;SDS011;6514;48.606;9.222;2023-04-25T03:31:40;4.93;;;3.70;;
12892;SDS011;6514;48.606;9.222;2023-04-25T03:34:07;5.70;;;3.93;;
12892;SDS011;6514;48.606;9.222;2023-04-25T03:36:34;6.70;;;4.03;;
12892;SDS011;6514;48.606;9.222;2023-04-25T03:39:02;6.30;;;3.90;;
12892;SDS011;6514;48.606;9.222;2023-04-25T03:41:29;7.10;;;4.23;;
12892;SDS011;6514;48.606;9.222;2023-04-25T03:43:56;4.87;;;4.40;;
12892;SDS011;6514;48.606;9.222;2023-04-25T03:46:23;4.57;;;4.17;;
12892;SDS011;6514;48.606;9.222;2023-04-25T03:48:49;6.70;;;3.90;;
12892;SDS011;6514;48.606;9.222;2023-04-25T03:51:16;6.07;;;4.47;;
12892;SDS011;6514;48.606;9.222;2023-04-25T03:53:43;4.97;;;4.10;;
12892;SDS011;6514;48.606;9.222;2023-04-25T03:56:11;8.03;;;4.60;;
12892;SDS011;6514;48.606;9.222;2023-04-25T03:58:38;4.60;;;3.63;;
12892;SDS011;6514;48.606;9.222;2023-04-25T04:01:05;6.57;;;3.93;;
12892;SDS011;6514;48.606;9.222;2023-04-25T04:03:32;5.57;;;4.07;;
12892;SDS011;6514;48.606;9.222;2023-04-25T04:06:00;6.47;;;4.00;;
12892;SDS011;6514;48.606;9.222;2023-04-25T04:08:27;4.30;;;3.50;;
12892;SDS011;6514;48.606;9.222;2023-04-25T04:10:54;4.77;;;4.10;;
12892;SDS011;6514;48.606;9.222;2023-04-25T04:13:23;3.90;;;3.50;;
12892;SDS011;6514;48.606;9.222;2023-04-25T04:15:49;5.57;;;3.77;;
12892;SDS011;6514;48.606;9.222;2023-04-25T04:18:16;6.47;;;4.37;;
12892;SDS011;6514;48.606;9.222;2023-04-25T04:20:43;6.13;;;3.63;;
12892;SDS011;6514;48.606;9.222;2023-04-25T04:23:10;5.23;;;4.10;;
12892;SDS011;6514;48.606;9.222;2023-04-25T04:25:37;5.23;;;3.87;;
12892;SDS011;6514;48.606;9.222;2023-04-25T04:28:04;6.97;;;4.07;;
12892;SDS011;6514;48.606;9.222;2023-04-25T04:30:33;6.07;;;3.70;;
12892;SDS011;6514;48.606;9.222;2023-04-25T04:33:01;3.63;;;3.33;;
12892;SDS011;6514;48.606;9.222;2023-04-25T04:35:28;5.33;;;3.93;;
12892;SDS011;6514;48.606;9.222;2023-04-25T04:37:55;7.77;;;3.97;;
12892;SDS011;6514;48.606;9.222;2023-04-25T04:40:22;4.33;;;3.83;;
12892;SDS011;6514;48.606;9.222;2023-04-25T04:42:50;4.63;;;3.80;;
12892;SDS011;6514;48.606;9.222;2023-04-25T04:45:18;6.00;;;4.47;;
12892;SDS011;6514;48.606;9.222;2023-04-25T04:47:46;8.00;;;5.20;;
12892;SDS011;6514;48.606;9.222;2023-04-25T04:50:14;5.87;;;3.93;;
12892;SDS011;6514;48.606;9.222;2023-04-25T04:52:41;3.23;;;2.83;;
12892;SDS011;6514;48.606;9.222;2023-04-25T04:55:08;4.70;;;3.10;;
12892;SDS011;6514;48.606;9.222;2023-04-25T04:57:35;6.27;;;3.27;;
12892;SDS011;6514;48.606;9.222;2023-04-25T05:00:04;4.17;;;3.30;;
12892;SDS011;6514;48.606;9.222;2023-04-25T05:02:35;5.03;;;2.87;;
12892;SDS011;6514;48.606;9.222;2023-04-25T05:05:04;3.67;;;3.10;;
12892;SDS011;6514;48.606;9.222;2023-04-25T05:07:31;3.50;;;2.77;;
12892;SDS011;6514;48.606;9.222;2023-04-25T05:09:58;2.93;;;2.63;;
12892;SDS011;6514;48.606;9.222;2023-04-25T05:12:25;5.07;;;2.93;;
12892;SDS011;6514;48.606;9.222;2023-04-25T05:14:52;4.20;;;2.40;;
12892;SDS011;6514;48.606;9.222;2023-04-25T05:17:19;5.10;;;2.80;;
12892;SDS011;6514;48.606;9.222;2023-04-25T05:19:45;4.63;;;2.43;;
12892;SDS011;6514;48.606;9.222;2023-04-25T05:22:14;5.27;;;2.30;;
12892;SDS011;6514;48.606;9.222;2023-04-25T05:24:41;3.37;;;3.07;;
12892;SDS011;6514;48.606;9.222;2023-04-25T05:27:08;4.60;;;2.77;;
12892;SDS011;6514;48.606;9.222;2023-04-25T05:29:34;2.53;;;2.33;;
12892;SDS011;6514;48.606;9.222;2023-04-25T05:32:01;5.50;;;2.40;;
12892;SDS011;6514;48.606;9.222;2023-04-25T05:34:28;5.10;;;2.93;;
12892;SDS011;6514;48.606;9.222;2023-04-25T05:36:55;3.87;;;2.77;;
12892;SDS011;6514;48.606;9.222;2023-04-25T05:39:23;4.17;;;2.83;;
12892;SDS011;6514;48.606;9.222;2023-04-25T05:41:50;3.23;;;2.23;;
12892;SDS011;6514;48.606;9.222;2023-04-25T05:44:17;3.47;;;2.93;;
12892;SDS011;6514;48.606;9.222;2023-04-25T05:46:44;4.00;;;2.77;;
12892;SDS011;6514;48.606;9.222;2023-04-25T05:49:10;5.30;;;3.20;;
12892;SDS011;6514;48.606;9.222;2023-04-25T05:51:37;4.13;;;2.80;;
12892;SDS011;6514;48.606;9.222;2023-04-25T05:54:04;2.80;;;2.37;;
12892;SDS011;6514;48.606;9.222;2023-04-25T05:56:32;3.23;;;2.23;;
12892;SDS011;6514;48.606;9.222;2023-04-25T05:58:59;4.97;;;2.53;;
12892;SDS011;6514;48.606;9.222;2023-04-25T06:01:26;4.80;;;2.67;;
12892;SDS011;6514;48.606;9.222;2023-04-25T06:03:53;2.90;;;2.60;;
12892;SDS011;6514;48.606;9.222;2023-04-25T06:06:20;3.00;;;2.60;;
12892;SDS011;6514;48.606;9.222;2023-04-25T06:08:48;3.37;;;2.27;;
12892;SDS011;6514;48.606;9.222;2023-04-25T06:11:15;3.90;;;2.57;;
12892;SDS011;6514;48.606;9.222;2023-04-25T06:13:43;2.87;;;2.37;;
12892;SDS011;6514;48.606;9.222;2023-04-25T06:16:10;7.67;;;2.27;;
12892;SDS011;6514;48.606;9.222;2023-04-25T06:18:37;4.77;;;2.57;;
12892;SDS011;6514;48.606;9.222;2023-04-25T06:21:04;4.70;;;3.07;;
12892;SDS011;6514;48.606;9.222;2023-04-25T06:23:31;3.90;;;2.10;;
12892;SDS011;6514;48.606;9.222;2023-04-25T06:25:59;4.57;;;2.23;;
12892;SDS011;6514;48.606;9.222;2023-04-25T06:28:26;5.60;;;2.07;;
12892;SDS011;6514;48.606;9.222;2023-04-25T06:30:54;4.37;;;1.70;;
12892;SDS011;6514;48.606;9.222;2023-04-25T06:33:21;4.53;;;2.00;;
12892;SDS011;6514;48.606;9.222;2023-04-25T06:35:49;2.67;;;2.30;;
12892;SDS011;6514;48.606;9.222;2023-04-25T06:38:16;2.13;;;1.90;;
12892;SDS011;6514;48.606;9.222;2023-04-25T06:40:42;9.00;;;2.40;;
12892;SDS011;6514;48.606;9.222;2023-04-25T06:43:09;2.57;;;2.03;;
12892;SDS011;6514;48.606;9.222;2023-04-25T06:45:36;3.77;;;2.20;;
12892;SDS011;6514;48.606;9.222;2023-04-25T06:48:05;3.43;;;2.30;;
12892;SDS011;6514;48.606;9.222;2023-04-25T06:50:32;4.00;;;2.37;;
12892;SDS011;6514;48.606;9.222;2023-04-25T06:53:00;3.47;;;2.30;;
12892;SDS011;6514;48.606;9.222;2023-04-25T06:55:27;3.63;;;2.20;;
12892;SDS011;6514;48.606;9.222;2023-04-25T06:57:55;7.07;;;2.30;;
12892;SDS011;6514;48.606;9.222;2023-04-25T07:00:21;2.53;;;2.30;;
12892;SDS011;6514;48.606;9.222;2023-04-25T07:02:48;4.10;;;2.13;;
12892;SDS011;6514;48.606;9.222;2023-04-25T07:05:17;3.30;;;2.13;;
12892;SDS011;6514;48.606;9.222;2023-04-25T07:07:44;4.13;;;2.37;;
12892;SDS011;6514;48.606;9.222;2023-04-25T07:10:10;3.30;;;2.50;;
12892;SDS011;6514;48.606;9.222;2023-04-25T07:12:37;3.93;;;2.50;;
12892;SDS011;6514;48.606;9.222;2023-04-25T07:15:05;2.93;;;2.20;;
12892;SDS011;6514;48.606;9.222;2023-04-25T07:17:35;3.63;;;2.03;;
12892;SDS011;6514;48.606;9.222;2023-04-25T07:20:02;2.40;;;2.20;;
12892;SDS011;6514;48.606;9.222;2023-04-25T07:22:32;3.40;;;2.40;;
12892;SDS011;6514;48.606;9.222;2023-04-25T07:24:59;3.83;;;2.80;;
12892;SDS011;6514;48.606;9.222;2023-04-25T07:27:26;2.67;;;2.47;;
12892;SDS011;6514;48.606;9.222;2023-04-25T07:29:53;3.67;;;2.80;;
12892;SDS011;6514;48.606;9.222;2023-04-25T07:32:19;3.37;;;2.40;;
12892;SDS011;6514;48.606;9.222;2023-04-25T07:34:46;3.27;;;2.53;;
12892;SDS011;6514;48.606;9.222;2023-04-25T07:37:13;3.17;;;2.57;;
12892;SDS011;6514;48.606;9.222;2023-04-25T07:39:42;4.47;;;2.70;;
12892;SDS011;6514;48.606;9.222;2023-04-25T07:42:10;3.93;;;3.20;;
12892;SDS011;6514;48.606;9.222;2023-04-25T07:44:37;3.37;;;2.97;;
12892;SDS011;6514;48.606;9.222;2023-04-25T07:47:05;5.77;;;3.70;;
12892;SDS011;6514;48.606;9.222;2023-04-25T07:49:33;10.17;;;8.27;;
12892;SDS011;6514;48.606;9.222;2023-04-25T07:52:00;13.23;;;9.10;;
12892;SDS011;6514;48.606;9.222;2023-04-25T07:54:27;4.70;;;3.77;;
12892;SDS011;6514;48.606;9.222;2023-04-25T07:56:56;8.43;;;5.53;;
12892;SDS011;6514;48.606;9.222;2023-04-25T07:59:23;7.23;;;6.13;;
12892;SDS011;6514;48.606;9.222;2023-04-25T08:01:50;7.20;;;4.53;;
12892;SDS011;6514;48.606;9.222;2023-04-25T08:04:17;3.97;;;3.50;;
12892;SDS011;6514;48.606;9.222;2023-04-25T08:06:43;5.03;;;4.40;;
12892;SDS011;6514;48.606;9.222;2023-04-25T08:09:11;5.10;;;4.30;;
12892;SDS011;6514;48.606;9.222;2023-04-25T08:11:38;7.50;;;6.07;;
12892;SDS011;6514;48.606;9.222;2023-04-25T08:14:06;5.60;;;5.03;;
12892;SDS011;6514;48.606;9.222;2023-04-25T08:16:33;4.73;;;4.13;;
12892;SDS011;6514;48.606;9.222;2023-04-25T08:19:00;4.43;;;4.03;;
12892;SDS011;6514;48.606;9.222;2023-04-25T08:21:27;4.30;;;3.27;;
12892;SDS011;6514;48.606;9.222;2023-04-25T08:23:54;5.70;;;4.97;;
12892;SDS011;6514;48.606;9.222;2023-04-25T08:26:22;4.33;;;3.93;;
12892;SDS011;6514;48.606;9.222;2023-04-25T08:28:49;4.70;;;4.13;;
12892;SDS011;6514;48.606;9.222;2023-04-25T08:31:17;3.80;;;3.50;;
12892;SDS011;6514;48.606;9.222;2023-04-25T08:33:44;4.23;;;3.73;;
12892;SDS011;6514;48.606;9.222;2023-04-25T08:36:11;3.53;;;3.23;;
12892;SDS011;6514;48.606;9.222;2023-04-25T08:38:38;4.33;;;3.87;;
12892;SDS011;6514;48.606;9.222;2023-04-25T08:41:05;7.40;;;3.93;;
12892;SDS011;6514;48.606;9.222;2023-04-25T08:43:33;4.87;;;3.67;;
12892;SDS011;6514;48.606;9.222;2023-04-25T08:46:01;10.20;;;6.87;;
12892;SDS011;6514;48.606;9.222;2023-04-25T08:48:31;3.70;;;3.40;;
12892;SDS011;6514;48.606;9.222;2023-04-25T08:50:59;3.80;;;3.50;;
12892;SDS011;6514;48.606;9.222;2023-04-25T08:53:29;4.33;;;3.93;;
12892;SDS011;6514;48.606;9.222;2023-04-25T08:55:58;5.70;;;4.67;;
12892;SDS011;6514;48.606;9.222;2023-04-25T08:58:27;10.77;;;7.40;;
12892;SDS011;6514;48.606;9.222;2023-04-25T09:00:55;7.10;;;5.67;;
12892;SDS011;6514;48.606;9.222;2023-04-25T09:03:21;7.50;;;5.37;;
12892;SDS011;6514;48.606;9.222;2023-04-25T09:05:50;6.67;;;4.90;;
12892;SDS011;6514;48.606;9.222;2023-04-25T09:08:18;4.50;;;3.93;;
12892;SDS011;6514;48.606;9.222;2023-04-25T09:10:45;14.33;;;10.13;;
12892;SDS011;6514;48.606;9.222;2023-04-25T09:13:13;12.20;;;9.33;;
12892;SDS011;6514;48.606;9.222;2023-04-25T09:15:47;6.33;;;5.73;;
12892;SDS011;6514;48.606;9.222;2023-04-25T09:18:22;17.23;;;12.43;;
12892;SDS011;6514;48.606;9.222;2023-04-25T09:20:52;19.17;;;14.57;;
12892;SDS011;6514;48.606;9.222;2023-04-25T09:23:20;32.80;;;23.63;;
12892;SDS011;6514;48.606;9.222;2023-04-25T09:25:48;15.87;;;12.40;;
12892;SDS011;6514;48.606;9.222;2023-04-25T09:28:22;17.67;;;12.63;;
12892;SDS011;6514;48.606;9.222;2023-04-25T09:30:53;23.00;;;16.90;;
12892;SDS011;6514;48.606;9.222;2023-04-25T09:33:26;14.93;;;10.37;;
12892;SDS011;6514;48.606;9.222;2023-04-25T09:36:01;8.13;;;6.60;;
12892;SDS011;6514;48.606;9.222;2023-04-25T09:38:30;8.30;;;7.40;;
12892;SDS011;6514;48.606;9.222;2023-04-25T09:40:58;10.30;;;8.00;;
12892;SDS011;6514;48.606;9.222;2023-04-25T09:43:27;14.53;;;11.13;;
12892;SDS011;6514;48.606;9.222;2023-04-25T09:45:54;10.17;;;9.27;;
12892;SDS011;6514;48.606;9.222;2023-04-25T09:48:25;8.30;;;7.67;;
12892;SDS011;6514;48.606;9.222;2023-04-25T09:51:07;5.07;;;4.67;;
12892;SDS011;6514;48.606;9.222;2023-04-25T09:53:35;4.77;;;4.33;;
12892;SDS011;6514;48.606;9.222;2023-04-25T09:56:04;4.10;;;3.70;;
12892;SDS011;6514;48.606;9.222;2023-04-25T09:58:32;3.77;;;3.27;;
12892;SDS011;6514;48.606;9.222;2023-04-25T10:01:01;4.03;;;3.60;;
12892;SDS011;6514;48.606;9.222;2023-04-25T10:03:29;3.17;;;2.87;;
12892;SDS011;6514;48.606;9.222;2023-04-25T10:05:57;3.60;;;3.23;;
12892;SDS011;6514;48.606;9.222;2023-04-25T10:08:31;3.50;;;3.20;;
12892;SDS011;6514;48.606;9.222;2023-04-25T10:10:59;3.83;;;3.47;;
12892;SDS011;6514;48.606;9.222;2023-04-25T10:13:28;3.57;;;3.27;;
12892;SDS011;6514;48.606;9.222;2023-04-25T10:15:55;3.60;;;3.30;;
12892;SDS011;6514;48.606;9.222;2023-04-25T10:18:24;4.37;;;3.97;;
12892;SDS011;6514;48.606;9.222;2023-04-25T10:20:52;4.57;;;4.17;;
12892;SDS011;6514;48.606;9.222;2023-04-25T10:23:20;5.27;;;4.77;;
12892;SDS011;6514;48.606;9.222;2023-04-25T10:25:50;4.23;;;3.23;;
12892;SDS011;6514;48.606;9.222;2023-04-25T10:28:18;6.17;;;5.57;;
12892;SDS011;6514;48.606;9.222;2023-04-25T10:30:58;5.97;;;5.47;;
12892;SDS011;6514;48.606;9.222;2023-04-25T10:33:35;19.70;;;17.70;;
12892;SDS011;6514;48.606;9.222;2023-04-25T10:36:12;6.90;;;6.30;;
12892;SDS011;6514;48.606;9.222;2023-04-25T10:38:40;4.90;;;4.50;;
12892;SDS011;6514;48.606;9.222;2023-04-25T10:41:11;4.77;;;4.37;;
12892;SDS011;6514;48.606;9.222;2023-04-25T10:43:39;2.33;;;2.23;;
12892;SDS011;6514;48.606;9.222;2023-04-25T10:46:13;2.90;;;2.70;;
12892;SDS011;6514;48.606;9.222;2023-04-25T10:48:48;3.50;;;3.20;;
12892;SDS011;6514;48.606;9.222;2023-04-25T10:51:16;7.87;;;7.37;;
12892;SDS011;6514;48.606;9.222;2023-04-25T10:53:56;5.30;;;4.90;;
12892;SDS011;6514;48.606;9.222;2023-04-25T10:56:26;3.47;;;3.27;;
12892;SDS011;6514;48.606;9.222;2023-04-25T10:59:05;2.50;;;2.30;;
12892;SDS011;6514;48.606;9.222;2023-04-25T11:01:35;1.37;;;1.27;;
12892;SDS011;6514;48.606;9.222;2023-04-25T11:04:05;1.23;;;1.23;;
12892;SDS011;6514;48.606;9.222;2023-04-25T11:06:35;1.70;;;1.60;;
12892;SDS011;6514;48.606;9.222;2023-04-25T11:09:10;1.60;;;1.50;;
12892;SDS011;6514;48.606;9.222;2023-04-25T11:11:40;1.10;;;1.10;;
12892;SDS011;6514;48.606;9.222;2023-04-25T11:14:07;0.70;;;0.70;;
12892;SDS011;6514;48.606;9.222;2023-04-25T11:16:34;0.60;;;0.60;;
12892;SDS011;6514;48.606;9.222;2023-04-25T11:19:01;1.27;;;0.63;;
12892;SDS011;6514;48.606;9.222;2023-04-25T11:21:28;0.80;;;0.60;;
12892;SDS011;6514;48.606;9.222;2023-04-25T11:23:56;0.30;;;0.30;;
12892;SDS011;6514;48.606;9.222;2023-04-25T11:26:24;1.13;;;1.07;;
12892;SDS011;6514;48.606;9.222;2023-04-25T11:28:55;0.90;;;0.90;;
12892;SDS011;6514;48.606;9.222;2023-04-25T11:31:24;5.23;;;4.73;;
12892;SDS011;6514;48.606;9.222;2023-04-25T11:33:52;2.60;;;2.30;;
12892;SDS011;6514;48.606;9.222;2023-04-25T11:36:19;1.40;;;1.30;;
12892;SDS011;6514;48.606;9.222;2023-04-25T11:38:46;0.77;;;0.70;;
12892;SDS011;6514;48.606;9.222;2023-04-25T11:41:13;1.13;;;0.83;;
12892;SDS011;6514;48.606;9.222;2023-04-25T11:43:40;1.03;;;0.93;;
12892;SDS011;6514;48.606;9.222;2023-04-25T11:46:10;1.73;;;1.63;;
12892;SDS011;6514;48.606;9.222;2023-04-25T11:48:38;0.80;;;0.80;;
12892;SDS011;6514;48.606;9.222;2023-04-25T11:51:05;0.70;;;0.70;;
12892;SDS011;6514;48.606;9.222;2023-04-25T11:53:32;2.10;;;1.90;;
12892;SDS011;6514;48.606;9.222;2023-04-25T11:55:59;1.70;;;1.50;;
12892;SDS011;6514;48.606;9.222;2023-04-25T11:58:26;2.77;;;1.30;;
12892;SDS011;6514;48.606;9.222;2023-04-25T12:00:53;1.60;;;1.50;;
12892;SDS011;6514;48.606;9.222;2023-04-25T12:03:24;1.60;;;1.50;;
12892;SDS011;6514;48.606;9.222;2023-04-25T12:06:01;1.50;;;1.40;;
12892;SDS011;6514;48.606;9.222;2023-04-25T12:08:30;2.27;;;1.80;;
12892;SDS011;6514;48.606;9.222;2023-04-25T12:10:57;5.17;;;3.93;;
12892;SDS011;6514;48.606;9.222;2023-04-25T12:13:27;3.40;;;2.83;;
12892;SDS011;6514;48.606;9.222;2023-04-25T12:15:57;1.03;;;0.80;;
12892;SDS011;6514;48.606;9.222;2023-04-25T12:18:30;1.87;;;1.10;;
12892;SDS011;6514;48.606;9.222;2023-04-25T12:20:57;1.27;;;1.17;;
12892;SDS011;6514;48.606;9.222;2023-04-25T12:23:25;1.27;;;1.17;;
12892;SDS011;6514;48.606;9.222;2023-04-25T12:25:53;1.50;;;1.40;;
12892;SDS011;6514;48.606;9.222;2023-04-25T12:28:21;2.07;;;1.30;;
12892;SDS011;6514;48.606;9.222;2023-04-25T12:30:52;1.20;;;1.10;;
12892;SDS011;6514;48.606;9.222;2023-04-25T12:33:23;1.40;;;1.30;;
12892;SDS011;6514;48.606;9.222;2023-04-25T12:35:53;1.40;;;1.30;;
12892;SDS011;6514;48.606;9.222;2023-04-25T12:38:21;1.20;;;1.10;;
12892;SDS011;6514;48.606;9.222;2023-04-25T12:40:49;1.20;;;1.10;;
12892;SDS011;6514;48.606;9.222;2023-04-25T12:43:16;1.60;;;1.50;;
12892;SDS011;6514;48.606;9.222;2023-04-25T12:45:43;1.20;;;1.10;;
12892;SDS011;6514;48.606;9.222;2023-04-25T12:48:10;3.00;;;2.70;;
12892;SDS011;6514;48.606;9.222;2023-04-25T12:50:37;1.30;;;1.20;;
12892;SDS011;6514;48.606;9.222;2023-04-25T12:53:05;1.30;;;1.20;;
12892;SDS011;6514;48.606;9.222;2023-04-25T12:55:32;2.40;;;2.20;;
12892;SDS011;6514;48.606;9.222;2023-04-25T12:57:58;1.60;;;1.50;;
12892;SDS011;6514;48.606;9.222;2023-04-25T13:00:25;1.80;;;1.70;;
12892;SDS011;6514;48.606;9.222;2023-04-25T13:02:52;1.90;;;1.80;;
12892;SDS011;6514;48.606;9.222;2023-04-25T13:05:19;2.23;;;1.90;;
12892;SDS011;6514;48.606;9.222;2023-04-25T13:07:46;2.50;;;2.00;;
12892;SDS011;6514;48.606;9.222;2023-04-25T13:10:14;1.97;;;1.77;;
12892;SDS011;6514;48.606;9.222;2023-04-25T13:12:43;2.17;;;1.97;;
12892;SDS011;6514;48.606;9.222;2023-04-25T13:15:10;2.20;;;2.00;;
12892;SDS011;6514;48.606;9.222;2023-04-25T13:17:37;2.23;;;2.13;;
12892;SDS011;6514;48.606;9.222;2023-04-25T13:20:05;2.30;;;1.83;;
12892;SDS011;6514;48.606;9.222;2023-04-25T13:22:34;2.83;;;2.27;;
12892;SDS011;6514;48.606;9.222;2023-04-25T13:25:02;2.40;;;2.20;;
12892;SDS011;6514;48.606;9.222;2023-04-25T13:27:32;2.43;;;1.90;;
12892;SDS011;6514;48.606;9.222;2023-04-25T13:29:59;2.50;;;2.17;;
12892;SDS011;6514;48.606;9.222;2023-04-25T13:32:26;2.50;;;2.30;;
12892;SDS011;6514;48.606;9.222;2023-04-25T13:34:53;2.20;;;2.00;;
12892;SDS011;6514;48.606;9.222;2023-04-25T13:37:20;2.50;;;2.13;;
12892;SDS011;6514;48.606;9.222;2023-04-25T13:39:49;2.63;;;2.40;;
12892;SDS011;6514;48.606;9.222;2023-04-25T13:42:16;3.17;;;2.27;;
12892;SDS011;6514;48.606;9.222;2023-04-25T13:44:44;3.40;;;2.10;;
12892;SDS011;6514;48.606;9.222;2023-04-25T13:47:11;2.20;;;1.97;;
12892;SDS011;6514;48.606;9.222;2023-04-25T13:49:38;2.97;;;2.20;;
12892;SDS011;6514;48.606;9.222;2023-04-25T13:52:05;1.83;;;1.73;;
12892;SDS011;6514;48.606;9.222;2023-04-25T13:54:32;2.50;;;2.30;;
12892;SDS011;6514;48.606;9.222;2023-04-25T13:56:59;2.33;;;1.80;;
12892;SDS011;6514;48.606;9.222;2023-04-25T13:59:27;2.47;;;2.27;;
12892;SDS011;6514;48.606;9.222;2023-04-25T14:01:55;2.40;;;2.13;;
12892;SDS011;6514;48.606;9.222;2023-04-25T14:04:22;2.47;;;2.27;;
12892;SDS011;6514;48.606;9.222;2023-04-25T14:06:50;3.20;;;2.13;;
12892;SDS011;6514;48.606;9.222;2023-04-25T14:09:17;2.30;;;1.97;;
12892;SDS011;6514;48.606;9.222;2023-04-25T14:11:45;2.70;;;2.50;;
12892;SDS011;6514;48.606;9.222;2023-04-25T14:14:12;2.70;;;2.33;;
12892;SDS011;6514;48.606;9.222;2023-04-25T14:16:41;3.30;;;2.23;;
12892;SDS011;6514;48.606;9.222;2023-04-25T14:19:09;3.90;;;2.77;;
12892;SDS011;6514;48.606;9.222;2023-04-25T14:21:36;2.50;;;2.30;;
12892;SDS011;6514;48.606;9.222;2023-04-25T14:24:03;3.97;;;2.93;;
12892;SDS011;6514;48.606;9.222;2023-04-25T14:26:31;5.50;;;3.50;;
12892;SDS011;6514;48.606;9.222;2023-04-25T14:28:59;4.13;;;3.27;;
12892;SDS011;6514;48.606;9.222;2023-04-25T14:31:26;3.60;;;2.90;;
12892;SDS011;6514;48.606;9.222;2023-04-25T14:33:53;4.03;;;3.63;;
12892;SDS011;6514;48.606;9.222;2023-04-25T14:36:21;7.80;;;6.50;;
12892;SDS011;6514;48.606;9.222;2023-04-25T14:38:48;4.07;;;3.50;;
12892;SDS011;6514;48.606;9.222;2023-04-25T14:41:15;4.70;;;4.10;;
12892;SDS011;6514;48.606;9.222;2023-04-25T14:43:42;4.63;;;4.23;;
12892;SDS011;6514;48.606;9.222;2023-04-25T14:46:10;4.30;;;3.90;;
12892;SDS011;6514;48.606;9.222;2023-04-25T14:48:37;4.83;;;4.03;;
12892;SDS011;6514;48.606;9.222;2023-04-25T14:51:04;5.60;;;4.10;;
12892;SDS011;6514;48.606;9.222;2023-04-25T14:53:32;4.50;;;4.17;;
12892;SDS011;6514;48.606;9.222;2023-04-25T14:55:59;5.07;;;4.57;;
12892;SDS011;6514;48.606;9.222;2023-04-25T14:58:26;5.20;;;4.40;;
12892;SDS011;6514;48.606;9.222;2023-04-25T15:00:53;4.80;;;4.30;;
12892;SDS011;6514;48.606;9.222;2023-04-25T15:03:21;5.67;;;3.87;;